Sunday, August 28, 2016
08:45 UTC
  |  Log In   |  Register Free
Airport Search:

Pike County-Hatcher Field Airport
(KPBX)

Pike County-Hatcher Field Airport Diagram
No Airport Diagram Available

FAA data valid effective Jul 21 2016 - Sep 15 2016 (unless otherwise noted).

 
 
 
 
 
 
 
 
 
 
 
 
 
 
Current Aviation Weather for KPBX

Weather Summary


Current weather conditions are not available for PBX - The nearest NOAA weather station is at SJS, (11.8 nm NW from PBX)

The most recent METAR observation for PBX was updated at: 12:55 UTC
METAR for PBX is not available. Closest METAR is for
METAR

METAR KPBX 280835Z 00000KT 10SM CLR 24/22 A3018 RMK AO2 T02410221

METAR KPBX 280810Z 00000KT 10SM CLR 24/22 A3016 RMK AO2 T02420220

METAR KPBX 280755Z 16004KT 10SM CLR 24/22 A3016 RMK AO2 T02430220

METAR KPBX 280735Z 17004KT 10SM CLR 25/22 A3016 RMK AO2 T02460219

METAR KPBX 280715Z 00000KT 10SM CLR 25/22 A3016 RMK AO2 T02480218

METAR KPBX 280655Z 11006KT 10SM CLR 25/22 A3016 RMK AO2 T02530216

METAR KPBX 280635Z 11004KT 10SM CLR 25/22 A3016 RMK AO2 T02480220

METAR KPBX 280615Z 17003KT 10SM CLR 25/22 A3016 RMK AO2 T02470221

METAR KPBX 280555Z 17003KT 10SM CLR 25/22 A3016 RMK AO2 T02470222 10290 20244

METAR KLNP 280835Z 19003KT 10SM -RA SCT100 SCT120 23/16 A3026 RMK AO2

METAR KSJS 280835Z 00000KT 10SM CLR 23/23 A3016 RMK AO2 T02320229

TAF for PBX is not available.
TAF

KSJS - TAF KSJS 280532Z 2806/2906 00000KT P6SM SCT250

KSJS - FM280700 00000KT 3SM BR SCT250

KSJS - FM281000 00000KT 1SM BR SCT250

KSJS - FM281200 00000KT P6SM SCT250

KSJS - FM281700 VRB03KT P6SM VCTS SCT050CB SCT250

KSJS - FM282300 VRB03KT P6SM SCT250 =

GlobalAir.com is loading additional information.
 Current Weather at LNP
73.0 F° (23.0 C°)

North winds at 0.0 mph
Pressure:
30.26 in
Humidity:
61%
Wind:
North at 0.0 mph
Dew Point:
59.0 F° (15.0 C°)
Visibility:
10.00 mi
PBX NOAA Radar




Find All Airport Services Find A Hotel Find A Rental Car Find A Golf Course Find A Restaurant $100 Hamburger



Airport Weather Forecast for KPBX

Translated METAR for KPBX (0835 UTC)
METAR:
KPBX 280835Z AUTO Pike County-Hatcher Field, Pikeville, KY (KPBX). Aug 28, 0835Z, Automated. Wind is Calm, 10 statute miles visibility, Clear Skies, Temperature 24°C, Dewpoint 22°C, Altimeter is 30.18. Remarks: automated station with precipitation discriminator hourly temp 24.1°C dewpoint 22.1°C
Conditions at:
KPBX (Pike County-Hatcher Field, KY) observed 0835 UTC 28 August 2016
Temperature:
78.0 F° (25.3 C°)
Dewpoint:
not reported - refer to area weather report
Pressure:
30.16 Hg
Winds:
East at 6.9 MPH (6 KT)
Visibility:
10.00
Ceiling:
at least 12,000 feet AGL
Clouds:
not reported - refer to area weather report
Remarks:
site is un-manned

Translated TAF for TAF for PBX is not available. Refer to local area forecast.
FBO's on the Field
FBO Company Facility Photos Services Transportation Aviation Fuel Prices: Prices include tax
Catering Weather Repair Courtesy Rental Type 100LL JetA JetA+ MOGAS 8087
 
Pikeville-Pike Airport

This FBO has not yet been rated
FS:Shell
Last Updated: Aug-11
Login to update fuel prices
SS:
Contact Pikeville-Pike AirportMore FBO Information
 
Add another FBO Facility Photos Catering Weather Repair Courtesy Rental Type 100LL JetA JetA+ MOGAS 8087
Services Transportation Aviation Fuel Prices: Prices include tax


model-print
model-print
model-print
model-print